sensor_id;sensor_type;location;lat;lon;timestamp;temperature;humidity
42683;DHT22;28293;50.930;3.464;2023-01-28T00:02:06;4.40;81.30
42683;DHT22;28293;50.930;3.464;2023-01-28T00:04:32;4.40;81.40
42683;DHT22;28293;50.930;3.464;2023-01-28T00:06:57;4.30;81.40
42683;DHT22;28293;50.930;3.464;2023-01-28T00:09:23;4.30;81.60
42683;DHT22;28293;50.930;3.464;2023-01-28T00:11:48;4.30;81.80
42683;DHT22;28293;50.930;3.464;2023-01-28T00:14:14;4.30;81.80
42683;DHT22;28293;50.930;3.464;2023-01-28T00:16:40;4.20;82.00
42683;DHT22;28293;50.930;3.464;2023-01-28T00:19:05;4.20;82.10
42683;DHT22;28293;50.930;3.464;2023-01-28T00:21:31;4.30;82.30
42683;DHT22;28293;50.930;3.464;2023-01-28T00:23:57;4.30;82.30
42683;DHT22;28293;50.930;3.464;2023-01-28T00:26:24;4.20;82.20
42683;DHT22;28293;50.930;3.464;2023-01-28T00:28:50;4.20;82.30
42683;DHT22;28293;50.930;3.464;2023-01-28T00:31:18;4.20;82.10
42683;DHT22;28293;50.930;3.464;2023-01-28T00:33:46;4.20;82.00
42683;DHT22;28293;50.930;3.464;2023-01-28T00:36:14;4.20;82.10
42683;DHT22;28293;50.930;3.464;2023-01-28T00:38:39;4.20;82.10
42683;DHT22;28293;50.930;3.464;2023-01-28T00:41:12;4.30;81.90
42683;DHT22;28293;50.930;3.464;2023-01-28T00:43:38;4.30;81.90
42683;DHT22;28293;50.930;3.464;2023-01-28T00:46:05;4.20;81.80
42683;DHT22;28293;50.930;3.464;2023-01-28T00:48:32;4.20;81.90
42683;DHT22;28293;50.930;3.464;2023-01-28T00:50:58;4.20;82.10
42683;DHT22;28293;50.930;3.464;2023-01-28T00:53:23;4.20;81.90
42683;DHT22;28293;50.930;3.464;2023-01-28T00:55:49;4.10;81.90
42683;DHT22;28293;50.930;3.464;2023-01-28T00:58:15;4.20;81.90
42683;DHT22;28293;50.930;3.464;2023-01-28T01:00:40;4.20;81.80
42683;DHT22;28293;50.930;3.464;2023-01-28T01:03:06;4.20;81.80
42683;DHT22;28293;50.930;3.464;2023-01-28T01:05:32;4.10;81.80
42683;DHT22;28293;50.930;3.464;2023-01-28T01:07:58;4.20;81.60
42683;DHT22;28293;50.930;3.464;2023-01-28T01:10:25;4.20;81.70
42683;DHT22;28293;50.930;3.464;2023-01-28T01:12:51;4.20;81.80
42683;DHT22;28293;50.930;3.464;2023-01-28T01:15:17;4.10;81.70
42683;DHT22;28293;50.930;3.464;2023-01-28T01:17:46;4.20;81.80
42683;DHT22;28293;50.930;3.464;2023-01-28T01:20:17;4.20;81.90
42683;DHT22;28293;50.930;3.464;2023-01-28T01:22:44;4.20;81.90
42683;DHT22;28293;50.930;3.464;2023-01-28T01:25:11;4.20;82.00
42683;DHT22;28293;50.930;3.464;2023-01-28T01:27:37;4.20;81.90
42683;DHT22;28293;50.930;3.464;2023-01-28T01:30:03;4.10;82.00
42683;DHT22;28293;50.930;3.464;2023-01-28T01:32:30;4.20;82.00
42683;DHT22;28293;50.930;3.464;2023-01-28T01:34:56;4.10;82.00
42683;DHT22;28293;50.930;3.464;2023-01-28T01:37:22;4.10;81.90
42683;DHT22;28293;50.930;3.464;2023-01-28T01:39:48;4.10;82.00
42683;DHT22;28293;50.930;3.464;2023-01-28T01:42:14;4.10;81.90
42683;DHT22;28293;50.930;3.464;2023-01-28T01:44:59;4.10;81.90
42683;DHT22;28293;50.930;3.464;2023-01-28T01:49:54;4.10;81.70
42683;DHT22;28293;50.930;3.464;2023-01-28T01:52:24;4.10;81.70
42683;DHT22;28293;50.930;3.464;2023-01-28T01:54:53;4.10;81.70
42683;DHT22;28293;50.930;3.464;2023-01-28T01:57:25;4.10;81.70
42683;DHT22;28293;50.930;3.464;2023-01-28T01:59:52;4.10;81.70
42683;DHT22;28293;50.930;3.464;2023-01-28T02:02:18;4.10;81.60
42683;DHT22;28293;50.930;3.464;2023-01-28T02:04:44;4.10;81.50
42683;DHT22;28293;50.930;3.464;2023-01-28T02:07:15;4.10;81.50
42683;DHT22;28293;50.930;3.464;2023-01-28T02:09:43;4.10;81.60
42683;DHT22;28293;50.930;3.464;2023-01-28T02:12:15;4.10;81.60
42683;DHT22;28293;50.930;3.464;2023-01-28T02:14:59;4.10;81.80
42683;DHT22;28293;50.930;3.464;2023-01-28T02:17:26;4.10;81.90
42683;DHT22;28293;50.930;3.464;2023-01-28T02:19:59;4.00;82.30
42683;DHT22;28293;50.930;3.464;2023-01-28T02:30:39;4.00;83.00
42683;DHT22;28293;50.930;3.464;2023-01-28T02:36:35;3.90;83.50
42683;DHT22;28293;50.930;3.464;2023-01-28T02:39:07;3.80;83.80
42683;DHT22;28293;50.930;3.464;2023-01-28T02:42:24;3.80;83.60
42683;DHT22;28293;50.930;3.464;2023-01-28T02:44:30;3.80;83.70
42683;DHT22;28293;50.930;3.464;2023-01-28T02:46:56;3.80;83.60
42683;DHT22;28293;50.930;3.464;2023-01-28T02:49:45;3.80;83.60
42683;DHT22;28293;50.930;3.464;2023-01-28T02:52:21;3.80;83.60
42683;DHT22;28293;50.930;3.464;2023-01-28T03:00:45;3.70;83.40
42683;DHT22;28293;50.930;3.464;2023-01-28T03:03:18;3.70;83.50
42683;DHT22;28293;50.930;3.464;2023-01-28T03:05:51;3.70;83.40
42683;DHT22;28293;50.930;3.464;2023-01-28T03:11:34;3.70;83.30
42683;DHT22;28293;50.930;3.464;2023-01-28T03:14:19;3.70;83.10
42683;DHT22;28293;50.930;3.464;2023-01-28T03:17:13;3.70;83.10
42683;DHT22;28293;50.930;3.464;2023-01-28T03:19:59;3.70;83.20
42683;DHT22;28293;50.930;3.464;2023-01-28T03:22:45;3.60;83.00
42683;DHT22;28293;50.930;3.464;2023-01-28T03:25:33;3.70;83.00
42683;DHT22;28293;50.930;3.464;2023-01-28T03:28:19;3.60;82.90
42683;DHT22;28293;50.930;3.464;2023-01-28T03:31:11;3.60;82.80
42683;DHT22;28293;50.930;3.464;2023-01-28T03:33:57;3.60;82.90
42683;DHT22;28293;50.930;3.464;2023-01-28T03:36:43;3.60;82.80
42683;DHT22;28293;50.930;3.464;2023-01-28T03:39:24;3.60;82.90
42683;DHT22;28293;50.930;3.464;2023-01-28T03:41:57;3.60;82.80
42683;DHT22;28293;50.930;3.464;2023-01-28T03:44:24;3.60;82.80
42683;DHT22;28293;50.930;3.464;2023-01-28T03:47:09;3.60;82.80
42683;DHT22;28293;50.930;3.464;2023-01-28T03:49:40;3.60;82.80
42683;DHT22;28293;50.930;3.464;2023-01-28T03:52:06;3.60;82.50
42683;DHT22;28293;50.930;3.464;2023-01-28T03:54:32;3.60;82.40
42683;DHT22;28293;50.930;3.464;2023-01-28T03:56:58;3.60;82.30
42683;DHT22;28293;50.930;3.464;2023-01-28T03:59:23;3.60;82.20
42683;DHT22;28293;50.930;3.464;2023-01-28T04:01:49;3.60;82.30
42683;DHT22;28293;50.930;3.464;2023-01-28T04:04:15;3.60;82.30
42683;DHT22;28293;50.930;3.464;2023-01-28T04:06:51;3.60;82.00
42683;DHT22;28293;50.930;3.464;2023-01-28T04:09:19;3.60;82.00
42683;DHT22;28293;50.930;3.464;2023-01-28T04:11:44;3.60;81.90
42683;DHT22;28293;50.930;3.464;2023-01-28T04:14:10;3.60;81.90
42683;DHT22;28293;50.930;3.464;2023-01-28T04:16:35;3.60;82.00
42683;DHT22;28293;50.930;3.464;2023-01-28T04:19:01;3.60;82.00
42683;DHT22;28293;50.930;3.464;2023-01-28T04:21:27;3.60;82.00
42683;DHT22;28293;50.930;3.464;2023-01-28T04:23:52;3.60;82.00
42683;DHT22;28293;50.930;3.464;2023-01-28T04:26:18;3.60;81.90
42683;DHT22;28293;50.930;3.464;2023-01-28T04:28:43;3.60;81.80
42683;DHT22;28293;50.930;3.464;2023-01-28T04:31:09;3.50;82.10
42683;DHT22;28293;50.930;3.464;2023-01-28T04:33:35;3.60;82.20
42683;DHT22;28293;50.930;3.464;2023-01-28T04:36:01;3.50;82.10
42683;DHT22;28293;50.930;3.464;2023-01-28T04:38:26;3.50;82.30
42683;DHT22;28293;50.930;3.464;2023-01-28T04:40:52;3.50;82.20
42683;DHT22;28293;50.930;3.464;2023-01-28T04:43:18;3.50;82.10
42683;DHT22;28293;50.930;3.464;2023-01-28T04:45:46;3.50;82.00
42683;DHT22;28293;50.930;3.464;2023-01-28T04:48:12;3.60;82.10
42683;DHT22;28293;50.930;3.464;2023-01-28T04:50:38;3.50;81.90
42683;DHT22;28293;50.930;3.464;2023-01-28T04:53:03;3.50;81.80
42683;DHT22;28293;50.930;3.464;2023-01-28T04:55:29;3.50;81.60
42683;DHT22;28293;50.930;3.464;2023-01-28T04:57:55;3.50;81.30
42683;DHT22;28293;50.930;3.464;2023-01-28T05:00:20;3.50;81.30
42683;DHT22;28293;50.930;3.464;2023-01-28T05:02:46;3.50;81.60
42683;DHT22;28293;50.930;3.464;2023-01-28T05:05:12;3.60;81.70
42683;DHT22;28293;50.930;3.464;2023-01-28T05:07:37;3.60;81.60
42683;DHT22;28293;50.930;3.464;2023-01-28T05:10:03;3.50;81.40
42683;DHT22;28293;50.930;3.464;2023-01-28T05:12:29;3.60;81.60
42683;DHT22;28293;50.930;3.464;2023-01-28T05:14:57;3.50;81.00
42683;DHT22;28293;50.930;3.464;2023-01-28T05:17:25;3.50;79.80
42683;DHT22;28293;50.930;3.464;2023-01-28T05:19:52;3.60;80.00
42683;DHT22;28293;50.930;3.464;2023-01-28T05:22:17;3.60;80.20
42683;DHT22;28293;50.930;3.464;2023-01-28T05:24:43;3.60;80.50
42683;DHT22;28293;50.930;3.464;2023-01-28T05:27:09;3.60;80.50
42683;DHT22;28293;50.930;3.464;2023-01-28T05:29:34;3.60;80.50
42683;DHT22;28293;50.930;3.464;2023-01-28T05:32:00;3.60;80.50
42683;DHT22;28293;50.930;3.464;2023-01-28T05:34:25;3.60;80.60
42683;DHT22;28293;50.930;3.464;2023-01-28T05:36:51;3.60;80.90
42683;DHT22;28293;50.930;3.464;2023-01-28T05:39:17;3.60;81.10
42683;DHT22;28293;50.930;3.464;2023-01-28T05:41:42;3.60;80.90
42683;DHT22;28293;50.930;3.464;2023-01-28T05:44:08;3.60;80.40
42683;DHT22;28293;50.930;3.464;2023-01-28T05:46:33;3.60;80.50
42683;DHT22;28293;50.930;3.464;2023-01-28T05:48:59;3.60;80.80
42683;DHT22;28293;50.930;3.464;2023-01-28T05:51:25;3.60;81.20
42683;DHT22;28293;50.930;3.464;2023-01-28T05:53:50;3.60;81.40
42683;DHT22;28293;50.930;3.464;2023-01-28T05:56:16;3.60;81.70
42683;DHT22;28293;50.930;3.464;2023-01-28T05:58:42;3.70;81.60
42683;DHT22;28293;50.930;3.464;2023-01-28T06:01:07;3.60;81.90
42683;DHT22;28293;50.930;3.464;2023-01-28T06:03:33;3.60;82.00
42683;DHT22;28293;50.930;3.464;2023-01-28T06:05:58;3.60;82.20
42683;DHT22;28293;50.930;3.464;2023-01-28T06:08:24;3.60;82.30
42683;DHT22;28293;50.930;3.464;2023-01-28T06:10:49;3.60;82.60
42683;DHT22;28293;50.930;3.464;2023-01-28T06:13:15;3.60;82.60
42683;DHT22;28293;50.930;3.464;2023-01-28T06:15:41;3.50;82.50
42683;DHT22;28293;50.930;3.464;2023-01-28T06:18:06;3.50;82.70
42683;DHT22;28293;50.930;3.464;2023-01-28T06:20:32;3.50;82.70
42683;DHT22;28293;50.930;3.464;2023-01-28T06:22:58;3.50;83.00
42683;DHT22;28293;50.930;3.464;2023-01-28T06:25:23;3.60;82.90
42683;DHT22;28293;50.930;3.464;2023-01-28T06:27:49;3.50;82.70
42683;DHT22;28293;50.930;3.464;2023-01-28T06:30:15;3.50;81.90
42683;DHT22;28293;50.930;3.464;2023-01-28T06:32:41;3.60;81.60
42683;DHT22;28293;50.930;3.464;2023-01-28T06:35:07;3.60;81.80
42683;DHT22;28293;50.930;3.464;2023-01-28T06:37:34;3.60;81.90
42683;DHT22;28293;50.930;3.464;2023-01-28T06:39:59;3.60;82.10
42683;DHT22;28293;50.930;3.464;2023-01-28T06:42:25;3.60;82.20
42683;DHT22;28293;50.930;3.464;2023-01-28T06:44:51;3.50;81.80
42683;DHT22;28293;50.930;3.464;2023-01-28T06:47:16;3.50;81.40
42683;DHT22;28293;50.930;3.464;2023-01-28T06:49:42;3.50;81.10
42683;DHT22;28293;50.930;3.464;2023-01-28T06:52:07;3.40;81.20
42683;DHT22;28293;50.930;3.464;2023-01-28T06:54:33;3.40;81.30
42683;DHT22;28293;50.930;3.464;2023-01-28T06:56:59;3.50;81.40
42683;DHT22;28293;50.930;3.464;2023-01-28T06:59:24;3.50;81.40
42683;DHT22;28293;50.930;3.464;2023-01-28T07:01:50;3.50;81.10
42683;DHT22;28293;50.930;3.464;2023-01-28T07:04:16;3.50;80.00
42683;DHT22;28293;50.930;3.464;2023-01-28T07:06:41;3.50;80.20
42683;DHT22;28293;50.930;3.464;2023-01-28T07:09:07;3.50;80.10
42683;DHT22;28293;50.930;3.464;2023-01-28T07:11:33;3.50;79.40
42683;DHT22;28293;50.930;3.464;2023-01-28T07:13:58;3.50;79.20
42683;DHT22;28293;50.930;3.464;2023-01-28T07:16:24;3.50;79.00
42683;DHT22;28293;50.930;3.464;2023-01-28T07:18:50;3.50;78.70
42683;DHT22;28293;50.930;3.464;2023-01-28T07:21:15;3.50;78.30
42683;DHT22;28293;50.930;3.464;2023-01-28T07:23:41;3.50;78.50
42683;DHT22;28293;50.930;3.464;2023-01-28T07:26:07;3.40;77.50
42683;DHT22;28293;50.930;3.464;2023-01-28T07:28:33;3.40;77.30
42683;DHT22;28293;50.930;3.464;2023-01-28T07:30:58;3.40;77.50
42683;DHT22;28293;50.930;3.464;2023-01-28T07:33:24;3.50;77.80
42683;DHT22;28293;50.930;3.464;2023-01-28T07:35:50;3.40;77.90
42683;DHT22;28293;50.930;3.464;2023-01-28T07:38:15;3.50;77.80
42683;DHT22;28293;50.930;3.464;2023-01-28T07:40:41;3.50;77.60
42683;DHT22;28293;50.930;3.464;2023-01-28T07:43:07;3.50;77.50
42683;DHT22;28293;50.930;3.464;2023-01-28T07:45:33;3.50;77.30
42683;DHT22;28293;50.930;3.464;2023-01-28T07:48:00;3.50;77.50
42683;DHT22;28293;50.930;3.464;2023-01-28T07:50:28;3.50;77.00
42683;DHT22;28293;50.930;3.464;2023-01-28T07:52:58;3.50;76.90
42683;DHT22;28293;50.930;3.464;2023-01-28T07:55:23;3.50;76.90
42683;DHT22;28293;50.930;3.464;2023-01-28T07:57:51;3.50;76.90
42683;DHT22;28293;50.930;3.464;2023-01-28T08:00:18;3.60;76.60
42683;DHT22;28293;50.930;3.464;2023-01-28T08:02:45;3.50;76.50
42683;DHT22;28293;50.930;3.464;2023-01-28T08:05:18;3.60;76.40
42683;DHT22;28293;50.930;3.464;2023-01-28T08:07:44;3.50;76.60
42683;DHT22;28293;50.930;3.464;2023-01-28T08:10:11;3.50;76.70
42683;DHT22;28293;50.930;3.464;2023-01-28T08:12:38;3.60;76.90
42683;DHT22;28293;50.930;3.464;2023-01-28T08:15:04;3.60;76.60
42683;DHT22;28293;50.930;3.464;2023-01-28T08:17:31;3.60;76.60
42683;DHT22;28293;50.930;3.464;2023-01-28T08:19:56;3.70;76.70
42683;DHT22;28293;50.930;3.464;2023-01-28T08:22:26;3.70;76.70
42683;DHT22;28293;50.930;3.464;2023-01-28T08:24:52;3.70;76.80
42683;DHT22;28293;50.930;3.464;2023-01-28T08:27:17;3.80;76.80
42683;DHT22;28293;50.930;3.464;2023-01-28T08:29:43;3.80;77.00
42683;DHT22;28293;50.930;3.464;2023-01-28T08:32:09;3.80;76.90
42683;DHT22;28293;50.930;3.464;2023-01-28T08:34:35;3.90;76.70
42683;DHT22;28293;50.930;3.464;2023-01-28T08:37:01;3.90;76.40
42683;DHT22;28293;50.930;3.464;2023-01-28T08:39:26;3.90;76.00
42683;DHT22;28293;50.930;3.464;2023-01-28T08:41:52;4.00;76.00
42683;DHT22;28293;50.930;3.464;2023-01-28T08:44:18;4.10;76.10
42683;DHT22;28293;50.930;3.464;2023-01-28T08:46:43;4.10;76.00
42683;DHT22;28293;50.930;3.464;2023-01-28T08:49:09;4.20;75.60
42683;DHT22;28293;50.930;3.464;2023-01-28T08:51:35;4.20;74.90
42683;DHT22;28293;50.930;3.464;2023-01-28T08:54:00;4.20;74.70
42683;DHT22;28293;50.930;3.464;2023-01-28T08:56:26;4.20;75.00
42683;DHT22;28293;50.930;3.464;2023-01-28T08:58:52;4.20;74.70
42683;DHT22;28293;50.930;3.464;2023-01-28T09:01:17;4.20;74.70
42683;DHT22;28293;50.930;3.464;2023-01-28T09:03:43;4.10;74.90
42683;DHT22;28293;50.930;3.464;2023-01-28T09:06:09;4.20;75.00
42683;DHT22;28293;50.930;3.464;2023-01-28T09:08:34;4.20;75.00
42683;DHT22;28293;50.930;3.464;2023-01-28T09:11:00;4.30;74.90
42683;DHT22;28293;50.930;3.464;2023-01-28T09:13:26;4.30;74.10
42683;DHT22;28293;50.930;3.464;2023-01-28T09:15:52;4.20;74.00
42683;DHT22;28293;50.930;3.464;2023-01-28T09:18:18;4.30;74.10
42683;DHT22;28293;50.930;3.464;2023-01-28T09:20:44;4.50;74.00
42683;DHT22;28293;50.930;3.464;2023-01-28T09:23:10;4.60;73.80
42683;DHT22;28293;50.930;3.464;2023-01-28T09:25:36;4.90;73.60
42683;DHT22;28293;50.930;3.464;2023-01-28T09:28:03;5.30;73.50
42683;DHT22;28293;50.930;3.464;2023-01-28T09:30:30;5.60;71.70
42683;DHT22;28293;50.930;3.464;2023-01-28T09:32:56;5.60;70.60
42683;DHT22;28293;50.930;3.464;2023-01-28T09:35:23;5.60;70.30
42683;DHT22;28293;50.930;3.464;2023-01-28T09:37:49;5.40;71.00
42683;DHT22;28293;50.930;3.464;2023-01-28T09:40:19;5.40;71.10
42683;DHT22;28293;50.930;3.464;2023-01-28T09:45:22;5.10;70.90
42683;DHT22;28293;50.930;3.464;2023-01-28T09:47:55;5.10;71.50
42683;DHT22;28293;50.930;3.464;2023-01-28T09:50:35;4.90;71.70
42683;DHT22;28293;50.930;3.464;2023-01-28T09:53:22;4.60;73.00
42683;DHT22;28293;50.930;3.464;2023-01-28T09:58:21;5.10;72.00
42683;DHT22;28293;50.930;3.464;2023-01-28T10:00:58;5.00;71.30
42683;DHT22;28293;50.930;3.464;2023-01-28T10:17:20;4.90;72.00
42683;DHT22;28293;50.930;3.464;2023-01-28T10:20:20;5.20;72.40
42683;DHT22;28293;50.930;3.464;2023-01-28T10:25:24;5.10;70.80
42683;DHT22;28293;50.930;3.464;2023-01-28T10:27:51;5.20;71.00
42683;DHT22;28293;50.930;3.464;2023-01-28T10:30:19;5.10;71.50
42683;DHT22;28293;50.930;3.464;2023-01-28T10:35:53;5.20;72.70
42683;DHT22;28293;50.930;3.464;2023-01-28T10:38:21;5.30;71.90
42683;DHT22;28293;50.930;3.464;2023-01-28T10:40:48;5.10;70.30
42683;DHT22;28293;50.930;3.464;2023-01-28T10:43:22;5.20;70.70
42683;DHT22;28293;50.930;3.464;2023-01-28T10:46:05;5.00;71.20
42683;DHT22;28293;50.930;3.464;2023-01-28T10:48:37;5.10;71.10
42683;DHT22;28293;50.930;3.464;2023-01-28T10:51:06;5.10;70.70
42683;DHT22;28293;50.930;3.464;2023-01-28T10:53:40;5.00;70.20
42683;DHT22;28293;50.930;3.464;2023-01-28T11:01:23;4.80;70.80
42683;DHT22;28293;50.930;3.464;2023-01-28T11:03:57;4.90;70.60
42683;DHT22;28293;50.930;3.464;2023-01-28T11:06:28;5.00;70.70
42683;DHT22;28293;50.930;3.464;2023-01-28T11:08:57;5.00;70.80
42683;DHT22;28293;50.930;3.464;2023-01-28T11:11:27;5.00;70.40
42683;DHT22;28293;50.930;3.464;2023-01-28T11:13:54;5.10;70.30
42683;DHT22;28293;50.930;3.464;2023-01-28T11:16:23;5.10;70.20
42683;DHT22;28293;50.930;3.464;2023-01-28T11:18:52;5.10;70.20
42683;DHT22;28293;50.930;3.464;2023-01-28T11:21:24;5.30;70.10
42683;DHT22;28293;50.930;3.464;2023-01-28T11:24:27;5.30;69.20
42683;DHT22;28293;50.930;3.464;2023-01-28T11:26:55;5.40;69.00
42683;DHT22;28293;50.930;3.464;2023-01-28T11:29:31;5.40;69.70
42683;DHT22;28293;50.930;3.464;2023-01-28T11:31:58;5.60;69.00
42683;DHT22;28293;50.930;3.464;2023-01-28T11:34:27;5.50;68.60
42683;DHT22;28293;50.930;3.464;2023-01-28T11:37:14;5.70;69.70
42683;DHT22;28293;50.930;3.464;2023-01-28T11:39:41;5.70;67.60
42683;DHT22;28293;50.930;3.464;2023-01-28T11:44:35;5.50;69.20
42683;DHT22;28293;50.930;3.464;2023-01-28T11:55:41;6.20;67.50
42683;DHT22;28293;50.930;3.464;2023-01-28T12:09:44;5.60;67.30
42683;DHT22;28293;50.930;3.464;2023-01-28T12:13:01;5.50;66.90
42683;DHT22;28293;50.930;3.464;2023-01-28T12:15:22;5.60;68.90
42683;DHT22;28293;50.930;3.464;2023-01-28T12:21:05;5.60;67.70
42683;DHT22;28293;50.930;3.464;2023-01-28T12:23:55;5.90;67.50
42683;DHT22;28293;50.930;3.464;2023-01-28T12:26:33;6.10;67.00
42683;DHT22;28293;50.930;3.464;2023-01-28T12:29:15;6.40;66.30
42683;DHT22;28293;50.930;3.464;2023-01-28T12:34:56;6.70;65.70
42683;DHT22;28293;50.930;3.464;2023-01-28T12:37:33;6.60;64.80
42683;DHT22;28293;50.930;3.464;2023-01-28T12:40:37;6.40;65.00
42683;DHT22;28293;50.930;3.464;2023-01-28T12:43:11;6.30;66.20
42683;DHT22;28293;50.930;3.464;2023-01-28T12:45:42;6.50;66.10
42683;DHT22;28293;50.930;3.464;2023-01-28T12:48:28;6.40;66.60
42683;DHT22;28293;50.930;3.464;2023-01-28T12:51:02;6.60;66.50
42683;DHT22;28293;50.930;3.464;2023-01-28T12:53:45;6.40;65.40
42683;DHT22;28293;50.930;3.464;2023-01-28T12:56:21;6.30;66.40
42683;DHT22;28293;50.930;3.464;2023-01-28T12:58:57;6.20;66.90
42683;DHT22;28293;50.930;3.464;2023-01-28T13:01:36;6.50;66.10
42683;DHT22;28293;50.930;3.464;2023-01-28T13:04:11;6.40;65.20
42683;DHT22;28293;50.930;3.464;2023-01-28T13:06:51;6.10;65.60
42683;DHT22;28293;50.930;3.464;2023-01-28T13:09:21;6.10;66.10
42683;DHT22;28293;50.930;3.464;2023-01-28T13:11:50;5.70;66.60
42683;DHT22;28293;50.930;3.464;2023-01-28T13:14:17;5.70;66.80
42683;DHT22;28293;50.930;3.464;2023-01-28T13:16:44;5.90;67.60
42683;DHT22;28293;50.930;3.464;2023-01-28T13:21:44;5.70;67.50
42683;DHT22;28293;50.930;3.464;2023-01-28T13:31:42;5.70;67.50
42683;DHT22;28293;50.930;3.464;2023-01-28T13:36:51;5.80;66.40
42683;DHT22;28293;50.930;3.464;2023-01-28T13:46:49;5.70;66.90
42683;DHT22;28293;50.930;3.464;2023-01-28T13:49:20;5.60;67.60
42683;DHT22;28293;50.930;3.464;2023-01-28T13:52:05;5.60;67.70
42683;DHT22;28293;50.930;3.464;2023-01-28T13:54:40;5.50;67.70
42683;DHT22;28293;50.930;3.464;2023-01-28T14:10:36;5.50;68.10
42683;DHT22;28293;50.930;3.464;2023-01-28T14:16:20;5.50;67.60
42683;DHT22;28293;50.930;3.464;2023-01-28T14:18:50;5.60;68.00
42683;DHT22;28293;50.930;3.464;2023-01-28T14:21:19;5.60;67.30
42683;DHT22;28293;50.930;3.464;2023-01-28T14:23:54;5.50;67.20
42683;DHT22;28293;50.930;3.464;2023-01-28T14:29:31;5.30;67.40
42683;DHT22;28293;50.930;3.464;2023-01-28T14:32:03;5.30;67.70
42683;DHT22;28293;50.930;3.464;2023-01-28T14:37:00;5.60;67.10
42683;DHT22;28293;50.930;3.464;2023-01-28T14:39:39;5.60;67.40
42683;DHT22;28293;50.930;3.464;2023-01-28T14:44:44;5.60;66.70
42683;DHT22;28293;50.930;3.464;2023-01-28T14:47:38;5.60;67.50
42683;DHT22;28293;50.930;3.464;2023-01-28T14:51:26;5.80;67.30
42683;DHT22;28293;50.930;3.464;2023-01-28T14:53:32;5.80;66.90
42683;DHT22;28293;50.930;3.464;2023-01-28T14:59:08;5.80;66.10
42683;DHT22;28293;50.930;3.464;2023-01-28T15:01:44;5.70;66.30
42683;DHT22;28293;50.930;3.464;2023-01-28T15:04:29;5.70;66.40
42683;DHT22;28293;50.930;3.464;2023-01-28T15:06:56;5.50;66.40
42683;DHT22;28293;50.930;3.464;2023-01-28T15:09:22;5.40;66.70
42683;DHT22;28293;50.930;3.464;2023-01-28T15:11:51;5.40;66.80
42683;DHT22;28293;50.930;3.464;2023-01-28T15:14:25;5.50;67.50
42683;DHT22;28293;50.930;3.464;2023-01-28T15:16:52;5.60;67.70
42683;DHT22;28293;50.930;3.464;2023-01-28T15:19:25;5.60;67.30
42683;DHT22;28293;50.930;3.464;2023-01-28T15:22:04;5.70;67.10
42683;DHT22;28293;50.930;3.464;2023-01-28T15:24:32;5.60;66.60
42683;DHT22;28293;50.930;3.464;2023-01-28T15:26:59;5.60;67.20
42683;DHT22;28293;50.930;3.464;2023-01-28T15:29:36;5.60;67.20
42683;DHT22;28293;50.930;3.464;2023-01-28T15:32:03;5.60;67.60
42683;DHT22;28293;50.930;3.464;2023-01-28T15:34:30;5.70;67.60
42683;DHT22;28293;50.930;3.464;2023-01-28T15:37:00;5.60;67.50
42683;DHT22;28293;50.930;3.464;2023-01-28T15:39:28;5.50;67.80
42683;DHT22;28293;50.930;3.464;2023-01-28T15:47:24;5.30;67.40
42683;DHT22;28293;50.930;3.464;2023-01-28T15:49:56;5.20;66.80
42683;DHT22;28293;50.930;3.464;2023-01-28T15:52:35;5.20;67.20
42683;DHT22;28293;50.930;3.464;2023-01-28T15:55:03;5.20;68.00
42683;DHT22;28293;50.930;3.464;2023-01-28T15:57:33;5.20;68.40
42683;DHT22;28293;50.930;3.464;2023-01-28T16:02:32;5.20;68.30
42683;DHT22;28293;50.930;3.464;2023-01-28T16:05:03;5.20;67.60
42683;DHT22;28293;50.930;3.464;2023-01-28T16:07:32;5.20;67.90
42683;DHT22;28293;50.930;3.464;2023-01-28T16:10:00;5.20;67.60
42683;DHT22;28293;50.930;3.464;2023-01-28T16:12:26;5.10;68.50
42683;DHT22;28293;50.930;3.464;2023-01-28T16:14:58;5.10;68.60
42683;DHT22;28293;50.930;3.464;2023-01-28T16:17:34;5.10;69.20
42683;DHT22;28293;50.930;3.464;2023-01-28T16:20:32;5.10;69.40
42683;DHT22;28293;50.930;3.464;2023-01-28T16:22:59;5.10;69.70
42683;DHT22;28293;50.930;3.464;2023-01-28T16:25:29;5.20;69.40
42683;DHT22;28293;50.930;3.464;2023-01-28T16:27:59;5.20;69.30
42683;DHT22;28293;50.930;3.464;2023-01-28T16:30:25;5.20;69.20
42683;DHT22;28293;50.930;3.464;2023-01-28T16:32:51;5.00;69.30
42683;DHT22;28293;50.930;3.464;2023-01-28T16:35:26;5.00;68.50
42683;DHT22;28293;50.930;3.464;2023-01-28T16:37:52;5.00;68.60
42683;DHT22;28293;50.930;3.464;2023-01-28T16:40:20;5.00;68.60
42683;DHT22;28293;50.930;3.464;2023-01-28T16:42:46;5.00;68.20
42683;DHT22;28293;50.930;3.464;2023-01-28T16:45:16;4.90;68.30
42683;DHT22;28293;50.930;3.464;2023-01-28T16:47:42;4.90;68.50
42683;DHT22;28293;50.930;3.464;2023-01-28T16:50:11;4.90;69.10
42683;DHT22;28293;50.930;3.464;2023-01-28T16:52:38;4.90;69.10
42683;DHT22;28293;50.930;3.464;2023-01-28T16:55:04;4.90;69.40
42683;DHT22;28293;50.930;3.464;2023-01-28T16:57:31;4.90;69.60
42683;DHT22;28293;50.930;3.464;2023-01-28T16:59:59;4.80;69.80
42683;DHT22;28293;50.930;3.464;2023-01-28T17:02:25;4.80;69.50
42683;DHT22;28293;50.930;3.464;2023-01-28T17:04:51;4.80;69.60
42683;DHT22;28293;50.930;3.464;2023-01-28T17:07:16;4.70;69.60
42683;DHT22;28293;50.930;3.464;2023-01-28T17:09:42;4.60;69.50
42683;DHT22;28293;50.930;3.464;2023-01-28T17:12:07;4.60;69.80
42683;DHT22;28293;50.930;3.464;2023-01-28T17:14:33;4.60;70.10
42683;DHT22;28293;50.930;3.464;2023-01-28T17:16:59;4.50;70.40
42683;DHT22;28293;50.930;3.464;2023-01-28T17:19:24;4.40;70.90
42683;DHT22;28293;50.930;3.464;2023-01-28T17:21:50;4.40;71.20
42683;DHT22;28293;50.930;3.464;2023-01-28T17:24:16;4.40;71.60
42683;DHT22;28293;50.930;3.464;2023-01-28T17:26:41;4.30;71.70
42683;DHT22;28293;50.930;3.464;2023-01-28T17:29:07;4.20;71.90
42683;DHT22;28293;50.930;3.464;2023-01-28T17:31:34;4.20;72.10
42683;DHT22;28293;50.930;3.464;2023-01-28T17:34:00;4.20;72.40
42683;DHT22;28293;50.930;3.464;2023-01-28T17:36:27;4.10;72.60
42683;DHT22;28293;50.930;3.464;2023-01-28T17:38:53;4.10;72.60
42683;DHT22;28293;50.930;3.464;2023-01-28T17:41:19;4.00;72.90
42683;DHT22;28293;50.930;3.464;2023-01-28T17:43:53;4.00;73.40
42683;DHT22;28293;50.930;3.464;2023-01-28T17:46:19;4.00;73.90
42683;DHT22;28293;50.930;3.464;2023-01-28T17:48:45;3.90;74.00
42683;DHT22;28293;50.930;3.464;2023-01-28T17:51:12;3.80;74.20
42683;DHT22;28293;50.930;3.464;2023-01-28T17:53:38;3.80;74.50
42683;DHT22;28293;50.930;3.464;2023-01-28T17:56:05;3.80;74.70
42683;DHT22;28293;50.930;3.464;2023-01-28T17:58:31;3.70;74.90
42683;DHT22;28293;50.930;3.464;2023-01-28T18:00:56;3.60;75.00
42683;DHT22;28293;50.930;3.464;2023-01-28T18:03:22;3.60;75.20
42683;DHT22;28293;50.930;3.464;2023-01-28T18:05:58;3.60;75.40
42683;DHT22;28293;50.930;3.464;2023-01-28T18:08:24;3.50;75.70
42683;DHT22;28293;50.930;3.464;2023-01-28T18:10:51;3.40;75.80
42683;DHT22;28293;50.930;3.464;2023-01-28T18:13:17;3.40;76.00
42683;DHT22;28293;50.930;3.464;2023-01-28T18:15:42;3.30;76.30
42683;DHT22;28293;50.930;3.464;2023-01-28T18:18:08;3.20;76.50